createdAt,value
2019-05-18T00:00:15.097Z,8.50
2019-05-18T00:02:45.391Z,8.50
2019-05-18T00:05:15.644Z,8.50
2019-05-18T00:07:45.963Z,8.40
2019-05-18T00:10:16.272Z,8.50
2019-05-18T00:12:46.559Z,8.60
2019-05-18T00:15:16.823Z,8.50
2019-05-18T00:17:47.981Z,8.50
2019-05-18T00:20:18.294Z,8.50
2019-05-18T00:22:48.567Z,8.40
2019-05-18T00:25:18.866Z,8.40
2019-05-18T00:27:49.139Z,8.40
2019-05-18T00:30:19.435Z,8.50
2019-05-18T00:32:49.719Z,8.60
2019-05-18T00:35:19.982Z,8.70
2019-05-18T00:37:50.240Z,8.60
2019-05-18T00:40:20.530Z,8.50
2019-05-18T00:42:50.806Z,8.50
2019-05-18T00:45:21.130Z,8.50
2019-05-18T00:47:51.459Z,8.60
2019-05-18T00:50:21.820Z,8.60
2019-05-18T00:52:52.135Z,8.50
2019-05-18T00:55:23.540Z,8.50
2019-05-18T00:57:54.084Z,8.70
2019-05-18T01:00:24.448Z,8.70
2019-05-18T01:02:54.715Z,8.70
2019-05-18T01:05:25.053Z,8.70
2019-05-18T01:07:55.327Z,8.70
2019-05-18T01:10:25.640Z,8.70
2019-05-18T01:12:55.896Z,8.60
2019-05-18T01:15:26.190Z,8.60
2019-05-18T01:17:57.883Z,8.70
2019-05-18T01:20:28.348Z,8.80
2019-05-18T01:22:58.613Z,8.80
2019-05-18T01:25:30.365Z,8.80
2019-05-18T01:28:00.635Z,8.70
2019-05-18T01:30:30.954Z,8.80
2019-05-18T01:33:01.239Z,8.80
2019-05-18T01:35:31.553Z,8.80
2019-05-18T01:38:01.918Z,9.00
2019-05-18T01:40:32.173Z,9.00
2019-05-18T01:43:02.482Z,9.10
2019-05-18T01:45:32.774Z,9.10
2019-05-18T01:48:13.330Z,9.20
2019-05-18T01:50:35.867Z,9.30
2019-05-18T01:53:06.316Z,9.40
2019-05-18T01:55:36.621Z,9.30
2019-05-18T01:58:07.019Z,9.20
2019-05-18T02:00:37.299Z,9.00
2019-05-18T02:03:07.610Z,9.00
2019-05-18T02:05:37.867Z,8.90
2019-05-18T02:08:08.363Z,8.80
2019-05-18T02:10:38.574Z,8.80
2019-05-18T02:13:08.877Z,8.80
2019-05-18T02:15:39.265Z,8.80
2019-05-18T02:18:09.515Z,8.70
2019-05-18T02:20:39.847Z,8.80
2019-05-18T02:23:10.127Z,8.80
2019-05-18T02:25:40.428Z,8.80
2019-05-18T02:28:10.692Z,8.70
2019-05-18T02:30:40.965Z,8.70
2019-05-18T02:33:11.224Z,8.60
2019-05-18T02:35:41.521Z,8.40
2019-05-18T02:38:11.800Z,8.30
2019-05-18T02:40:42.076Z,8.20
2019-05-18T02:43:12.350Z,8.10
2019-05-18T02:45:42.637Z,8.10
2019-05-18T02:48:15.582Z,8.10
2019-05-18T02:53:57.785Z,8.00
2019-05-18T02:56:28.095Z,8.10
2019-05-18T02:58:58.389Z,8.10
2019-05-18T03:01:28.717Z,8.20
2019-05-18T03:03:59.003Z,8.30
2019-05-18T03:06:29.300Z,8.30
2019-05-18T03:08:59.628Z,8.30
2019-05-18T03:11:29.903Z,8.40
2019-05-18T03:14:00.581Z,8.40
2019-05-18T03:16:30.854Z,8.40
2019-05-18T03:19:08.306Z,8.40
2019-05-18T03:21:34.257Z,8.30
2019-05-18T03:24:04.524Z,8.30
2019-05-18T03:26:35.225Z,8.20
2019-05-18T03:29:05.507Z,8.20
2019-05-18T03:31:35.807Z,8.20
2019-05-18T03:34:06.100Z,8.30
2019-05-18T03:36:36.372Z,8.30
2019-05-18T03:39:06.691Z,8.30
2019-05-18T03:41:37.031Z,8.10
2019-05-18T03:44:07.298Z,8.00
2019-05-18T03:46:37.581Z,8.00
2019-05-18T03:49:24.944Z,7.90
2019-05-18T03:51:39.788Z,7.80
2019-05-18T03:54:10.068Z,7.80
2019-05-18T03:56:40.520Z,7.80
2019-05-18T03:59:10.836Z,7.80
2019-05-18T04:01:41.166Z,7.70
2019-05-18T04:04:11.518Z,7.80
2019-05-18T04:06:41.790Z,7.90
2019-05-18T04:09:12.101Z,7.90
2019-05-18T04:11:42.392Z,8.00
2019-05-18T04:14:12.685Z,8.10
2019-05-18T04:16:42.975Z,8.30
2019-05-18T04:19:13.290Z,8.50
2019-05-18T04:21:43.574Z,8.50
2019-05-18T04:24:13.857Z,8.50
2019-05-18T04:26:44.148Z,8.40
2019-05-18T04:29:14.995Z,8.40
2019-05-18T04:31:57.608Z,8.50
2019-05-18T04:34:27.928Z,8.50
2019-05-18T04:36:58.267Z,8.50
2019-05-18T04:39:29.881Z,8.60
2019-05-18T04:42:00.176Z,8.70
2019-05-18T04:44:30.469Z,8.80
2019-05-18T04:47:00.781Z,8.90
2019-05-18T04:49:31.064Z,8.90
2019-05-18T04:52:01.328Z,9.00
2019-05-18T04:54:31.662Z,9.20
2019-05-18T04:57:01.929Z,9.30
2019-05-18T04:59:32.213Z,9.50
2019-05-18T05:02:02.561Z,9.70
2019-05-18T05:04:32.853Z,9.80
2019-05-18T05:07:03.145Z,10.00
2019-05-18T05:09:33.433Z,10.20
2019-05-18T05:12:03.895Z,10.30
2019-05-18T05:14:34.242Z,10.50
2019-05-18T05:17:04.562Z,10.60
2019-05-18T05:19:34.816Z,10.80
2019-05-18T05:22:05.119Z,10.80
2019-05-18T05:24:35.432Z,10.80
2019-05-18T05:27:05.717Z,10.90
2019-05-18T05:29:35.992Z,11.00
2019-05-18T05:32:06.275Z,11.10
2019-05-18T05:34:36.569Z,11.20
2019-05-18T05:37:06.859Z,11.10
2019-05-18T05:39:37.179Z,11.10
2019-05-18T05:42:07.471Z,11.10
2019-05-18T05:44:37.783Z,11.00
2019-05-18T05:47:08.456Z,11.10
2019-05-18T05:49:38.753Z,11.30
2019-05-18T05:52:09.080Z,11.70
2019-05-18T05:54:39.366Z,11.90
2019-05-18T05:57:09.655Z,12.10
2019-05-18T05:59:39.975Z,12.00
2019-05-18T06:02:10.260Z,11.80
2019-05-18T06:04:40.532Z,12.00
2019-05-18T06:07:10.827Z,12.30
2019-05-18T06:09:41.099Z,12.60
2019-05-18T06:12:13.327Z,13.00
2019-05-18T06:14:43.584Z,13.50
2019-05-18T06:17:13.907Z,13.10
2019-05-18T06:19:44.857Z,12.90
2019-05-18T06:22:16.444Z,13.20
2019-05-18T06:24:46.738Z,13.70
2019-05-18T06:27:17.003Z,14.50
2019-05-18T06:29:47.303Z,14.70
2019-05-18T06:32:17.587Z,14.70
2019-05-18T06:34:47.919Z,14.60
2019-05-18T06:37:18.199Z,14.70
2019-05-18T06:39:48.688Z,15.10
2019-05-18T06:42:20.047Z,15.70
2019-05-18T06:44:50.346Z,16.30
2019-05-18T06:47:20.632Z,16.50
2019-05-18T06:49:51.535Z,16.80
2019-05-18T06:52:22.387Z,16.40
2019-05-18T06:54:52.742Z,15.40
2019-05-18T06:57:23.027Z,14.80
2019-05-18T06:59:53.346Z,14.50
2019-05-18T07:02:23.668Z,14.70
2019-05-18T07:04:54.821Z,14.60
2019-05-18T07:07:25.096Z,14.70
2019-05-18T07:09:55.422Z,14.40
2019-05-18T07:12:25.792Z,14.30
2019-05-18T07:14:56.074Z,14.70
2019-05-18T07:17:26.378Z,14.90
2019-05-18T07:19:56.684Z,14.90
2019-05-18T07:22:27.043Z,14.90
2019-05-18T07:24:57.972Z,15.30
2019-05-18T07:27:28.314Z,15.80
2019-05-18T07:29:58.608Z,16.70
2019-05-18T07:32:28.898Z,17.30
2019-05-18T07:34:59.199Z,17.60
2019-05-18T07:37:29.501Z,18.60
2019-05-18T07:39:59.826Z,19.40
2019-05-18T07:42:30.060Z,19.60
2019-05-18T07:45:02.493Z,20.20
2019-05-18T07:47:32.768Z,20.50
2019-05-18T07:50:03.100Z,20.50
2019-05-18T07:52:33.383Z,21.40
2019-05-18T07:55:03.692Z,21.90
2019-05-18T07:57:33.976Z,22.10
2019-05-18T08:00:04.480Z,22.50
2019-05-18T08:02:34.775Z,23.00
2019-05-18T08:05:05.395Z,23.40
2019-05-18T08:07:35.825Z,23.70
2019-05-18T08:10:06.114Z,23.60
2019-05-18T08:12:36.403Z,23.60
2019-05-18T08:15:06.670Z,24.60
2019-05-18T08:17:37.035Z,25.10
2019-05-18T08:20:07.316Z,25.80
2019-05-18T08:22:37.666Z,26.80
2019-05-18T08:25:07.897Z,28.70
2019-05-18T08:27:38.387Z,29.40
2019-05-18T08:30:09.824Z,30.60
2019-05-18T08:32:40.159Z,31.50
2019-05-18T08:35:10.775Z,31.90
2019-05-18T08:37:41.082Z,31.10
2019-05-18T08:40:11.384Z,33.20
2019-05-18T08:42:41.665Z,33.90
2019-05-18T08:45:11.967Z,34.60
2019-05-18T08:47:42.248Z,34.80
2019-05-18T08:50:12.774Z,35.20
2019-05-18T08:52:43.046Z,34.90
2019-05-18T08:55:13.813Z,35.50
2019-05-18T08:57:45.039Z,37.80
2019-05-18T09:00:15.392Z,38.50
2019-05-18T09:02:45.668Z,38.10
2019-05-18T09:05:16.056Z,36.50
2019-05-18T09:07:46.381Z,36.60
2019-05-18T09:10:16.659Z,33.70
2019-05-18T09:12:47.727Z,32.30
2019-05-18T09:15:18.071Z,31.90
2019-05-18T09:17:48.385Z,33.20
2019-05-18T09:20:18.674Z,33.40
2019-05-18T09:22:48.973Z,33.60
2019-05-18T09:25:19.757Z,33.60
2019-05-18T09:27:50.023Z,33.40
2019-05-18T09:30:20.340Z,32.60
2019-05-18T09:32:50.905Z,31.40
2019-05-18T09:35:21.468Z,32.20
2019-05-18T09:37:51.733Z,33.60
2019-05-18T09:40:22.006Z,33.10
2019-05-18T09:42:52.268Z,32.50
2019-05-18T09:45:23.119Z,30.20
2019-05-18T09:47:53.416Z,29.40
2019-05-18T09:50:23.688Z,29.20
2019-05-18T09:52:53.979Z,27.90
2019-05-18T09:55:24.251Z,28.20
2019-05-18T09:57:54.720Z,28.50
2019-05-18T10:00:25.110Z,28.70
2019-05-18T10:02:55.428Z,28.00
2019-05-18T10:05:26.011Z,25.70
2019-05-18T10:07:56.870Z,24.50
2019-05-18T10:10:27.139Z,23.70
2019-05-18T10:12:59.024Z,24.20
2019-05-18T10:15:29.294Z,25.40
2019-05-18T10:17:59.721Z,24.70
2019-05-18T10:20:30.463Z,24.60
2019-05-18T10:23:12.497Z,24.20
2019-05-18T10:25:33.915Z,23.60
2019-05-18T10:28:04.189Z,23.80
2019-05-18T10:30:35.365Z,24.30
2019-05-18T10:33:05.665Z,23.70
2019-05-18T10:35:35.956Z,23.40
2019-05-18T10:38:06.435Z,23.60
2019-05-18T10:40:36.703Z,23.90
2019-05-18T10:43:06.991Z,23.80
2019-05-18T10:45:37.937Z,23.40
2019-05-18T10:48:08.303Z,23.00
2019-05-18T10:50:38.583Z,22.80
2019-05-18T10:53:08.772Z,22.90
2019-05-18T10:55:40.127Z,23.20
2019-05-18T10:58:11.281Z,23.50
2019-05-18T11:00:41.556Z,23.70
2019-05-18T11:03:11.890Z,23.70
2019-05-18T11:05:43.080Z,23.70
2019-05-18T11:08:13.401Z,23.50
2019-05-18T11:10:43.726Z,23.30
2019-05-18T11:13:17.114Z,23.60
2019-05-18T11:15:46.303Z,23.60
2019-05-18T11:18:17.443Z,23.60
2019-05-18T11:20:47.720Z,24.00
2019-05-18T11:23:18.040Z,24.00
2019-05-18T11:25:48.323Z,23.70
2019-05-18T11:28:18.614Z,23.30
2019-05-18T11:30:48.908Z,23.10
2019-05-18T11:33:19.177Z,23.10
2019-05-18T11:35:49.554Z,23.40
2019-05-18T11:38:19.857Z,23.30
2019-05-18T11:40:50.155Z,23.20
2019-05-18T11:43:20.424Z,23.00
2019-05-18T11:45:50.722Z,23.10
2019-05-18T11:48:20.987Z,23.20
2019-05-18T11:50:51.301Z,23.40
2019-05-18T11:53:24.925Z,23.40
2019-05-18T11:55:55.201Z,23.70
2019-05-18T11:58:25.485Z,23.10
2019-05-18T12:00:55.767Z,23.30
2019-05-18T12:03:26.116Z,23.40
2019-05-18T12:05:56.411Z,23.30
2019-05-18T12:08:26.763Z,23.30
2019-05-18T12:10:57.070Z,23.40
2019-05-18T12:13:27.342Z,23.40
2019-05-18T12:15:57.627Z,23.50
2019-05-18T12:18:27.975Z,23.80
2019-05-18T12:20:58.240Z,23.90
2019-05-18T12:23:28.499Z,24.00
2019-05-18T12:25:58.972Z,24.00
2019-05-18T12:28:31.473Z,24.00
2019-05-18T12:31:02.869Z,24.10
2019-05-18T12:33:33.147Z,24.10
2019-05-18T12:36:03.418Z,24.00
2019-05-18T12:38:33.717Z,23.70
2019-05-18T12:41:04.070Z,23.60
2019-05-18T12:43:34.338Z,23.70
2019-05-18T12:46:04.605Z,23.60
2019-05-18T12:48:35.034Z,23.60
2019-05-18T12:51:05.275Z,23.70
2019-05-18T12:53:35.830Z,23.40
2019-05-18T12:56:08.090Z,23.40
2019-05-18T12:58:38.364Z,23.40
2019-05-18T13:01:10.941Z,23.40
2019-05-18T13:03:42.154Z,23.70
2019-05-18T13:06:12.448Z,23.70
2019-05-18T13:08:44.768Z,23.40
2019-05-18T13:11:15.272Z,23.00
2019-05-18T13:13:45.551Z,22.70
2019-05-18T13:16:16.534Z,22.50
2019-05-18T13:18:47.555Z,22.30
2019-05-18T13:21:17.928Z,22.40
2019-05-18T13:23:48.207Z,22.50
2019-05-18T13:26:18.479Z,22.60
2019-05-18T13:28:48.740Z,23.00
2019-05-18T13:31:19.378Z,23.10
2019-05-18T13:33:49.843Z,23.30
2019-05-18T13:36:20.129Z,23.40
2019-05-18T13:38:51.800Z,23.90
2019-05-18T13:41:22.301Z,23.80
2019-05-18T13:43:52.638Z,23.80
2019-05-18T13:46:22.895Z,23.40
2019-05-18T13:48:53.175Z,23.00
2019-05-18T13:51:23.485Z,22.80
2019-05-18T13:53:53.755Z,22.70
2019-05-18T13:56:24.050Z,22.60
2019-05-18T13:58:54.325Z,22.80
2019-05-18T14:01:25.539Z,23.00
2019-05-18T14:03:55.792Z,23.00
2019-05-18T14:06:26.159Z,23.00
2019-05-18T14:08:56.436Z,23.10
2019-05-18T14:11:26.739Z,23.30
2019-05-18T14:13:57.020Z,23.10
2019-05-18T14:16:28.445Z,23.30
2019-05-18T14:18:59.498Z,23.20
2019-05-18T14:21:29.802Z,23.20
2019-05-18T14:24:00.173Z,23.20
2019-05-18T14:26:31.203Z,22.90
2019-05-18T14:29:01.518Z,22.60
2019-05-18T14:31:32.699Z,22.50
2019-05-18T14:34:02.954Z,22.40
2019-05-18T14:36:33.242Z,22.10
2019-05-18T14:39:03.551Z,21.80
2019-05-18T14:41:34.678Z,21.70
2019-05-18T14:44:05.007Z,21.70
2019-05-18T14:46:35.290Z,21.70
2019-05-18T14:49:05.580Z,21.80
2019-05-18T14:51:35.869Z,21.70
2019-05-18T14:54:06.155Z,21.70
2019-05-18T14:56:36.475Z,21.50
2019-05-18T14:59:07.225Z,21.20
2019-05-18T15:01:38.592Z,21.10
2019-05-18T15:04:09.643Z,21.20
2019-05-18T15:06:39.981Z,21.20
2019-05-18T15:09:11.312Z,21.20
2019-05-18T15:11:41.683Z,21.20
2019-05-18T15:14:11.972Z,21.00
2019-05-18T15:16:42.258Z,20.90
2019-05-18T15:19:12.553Z,20.70
2019-05-18T15:21:42.793Z,20.60
2019-05-18T15:24:13.070Z,20.40
2019-05-18T15:26:43.328Z,20.30
2019-05-18T15:29:14.481Z,20.20
2019-05-18T15:31:44.733Z,20.10
2019-05-18T15:34:16.301Z,20.10
2019-05-18T15:36:46.639Z,20.00
2019-05-18T15:39:16.943Z,20.00
2019-05-18T15:41:47.221Z,20.10
2019-05-18T15:44:19.552Z,20.30
2019-05-18T15:46:49.884Z,20.50
2019-05-18T15:49:20.176Z,20.60
2019-05-18T15:51:50.468Z,20.70
2019-05-18T15:54:20.776Z,20.90
2019-05-18T15:56:51.522Z,21.00
2019-05-18T15:59:22.740Z,21.10
2019-05-18T16:01:53.088Z,21.20
2019-05-18T16:04:23.383Z,21.10
2019-05-18T16:06:53.718Z,20.90
2019-05-18T16:09:23.985Z,21.00
2019-05-18T16:11:54.374Z,20.80
2019-05-18T16:14:24.784Z,20.70
2019-05-18T16:16:55.224Z,20.50
2019-05-18T16:19:25.566Z,20.50
2019-05-18T16:21:55.843Z,20.20
2019-05-18T16:24:26.139Z,20.10
2019-05-18T16:26:56.399Z,20.00
2019-05-18T16:29:26.685Z,20.00
2019-05-18T16:31:56.967Z,20.00
2019-05-18T16:34:27.238Z,20.00
2019-05-18T16:37:00.666Z,20.00
2019-05-18T16:39:29.520Z,20.00
2019-05-18T16:41:59.787Z,19.90
2019-05-18T16:44:30.072Z,19.80
2019-05-18T16:47:00.335Z,19.80
2019-05-18T16:49:30.635Z,19.80
2019-05-18T16:52:01.033Z,19.70
2019-05-18T16:54:31.294Z,19.70
2019-05-18T16:57:01.563Z,19.60
2019-05-18T16:59:31.872Z,19.60
2019-05-18T17:02:02.969Z,19.50
2019-05-18T17:04:33.306Z,19.50
2019-05-18T17:07:03.880Z,19.50
2019-05-18T17:09:34.204Z,19.40
2019-05-18T17:12:04.470Z,19.30
2019-05-18T17:14:35.625Z,19.20
2019-05-18T17:17:05.894Z,19.20
2019-05-18T17:19:36.179Z,19.00
2019-05-18T17:22:07.418Z,18.80
2019-05-18T17:24:37.701Z,18.70
2019-05-18T17:27:07.998Z,18.60
2019-05-18T17:29:38.251Z,18.60
2019-05-18T17:32:08.549Z,18.50
2019-05-18T17:34:38.839Z,18.40
2019-05-18T17:37:09.131Z,18.00
2019-05-18T17:39:39.455Z,17.70
2019-05-18T17:42:10.304Z,17.50
2019-05-18T17:44:40.604Z,17.40
2019-05-18T17:47:10.999Z,17.20
2019-05-18T17:49:41.268Z,17.20
2019-05-18T17:52:11.581Z,17.40
2019-05-18T17:54:41.845Z,17.50
2019-05-18T17:57:12.968Z,17.50
2019-05-18T17:59:43.252Z,17.60
2019-05-18T18:02:13.586Z,17.50
2019-05-18T18:04:43.867Z,17.40
2019-05-18T18:07:14.169Z,17.30
2019-05-18T18:09:45.626Z,17.20
2019-05-18T18:12:15.976Z,17.10
2019-05-18T18:14:46.277Z,17.10
2019-05-18T18:17:17.884Z,17.10
2019-05-18T18:19:48.748Z,17.10
2019-05-18T18:22:19.035Z,17.00
2019-05-18T18:24:49.351Z,16.80
2019-05-18T18:27:25.119Z,16.70
2019-05-18T18:29:51.806Z,16.60
2019-05-18T18:32:22.095Z,16.60
2019-05-18T18:34:52.442Z,16.60
2019-05-18T18:37:22.722Z,16.60
2019-05-18T18:39:53.064Z,16.50
2019-05-18T18:42:23.363Z,16.20
2019-05-18T18:44:53.638Z,16.10
2019-05-18T18:47:23.902Z,16.00
2019-05-18T18:49:54.527Z,16.00
2019-05-18T18:52:24.807Z,15.90
2019-05-18T18:54:55.112Z,15.80
2019-05-18T18:57:40.059Z,15.70
2019-05-18T18:59:57.342Z,15.60
2019-05-18T19:02:28.016Z,15.60
2019-05-18T19:04:58.364Z,15.70
2019-05-18T19:07:28.746Z,15.70
2019-05-18T19:09:59.002Z,15.70
2019-05-18T19:12:29.292Z,15.80
2019-05-18T19:14:59.563Z,15.80
2019-05-18T19:17:30.276Z,15.90
2019-05-18T19:20:00.574Z,16.00
2019-05-18T19:22:30.844Z,15.90
2019-05-18T19:25:01.171Z,15.80
2019-05-18T19:27:31.436Z,15.80
2019-05-18T19:30:01.790Z,15.80
2019-05-18T19:32:32.332Z,15.90
2019-05-18T19:35:06.995Z,15.90
2019-05-18T19:37:38.850Z,15.90
2019-05-18T19:40:09.196Z,15.80
2019-05-18T19:42:39.408Z,15.90
2019-05-18T19:45:10.105Z,15.80
2019-05-18T19:47:41.234Z,15.70
2019-05-18T19:50:11.560Z,15.70
2019-05-18T19:52:41.895Z,15.70
2019-05-18T19:55:12.190Z,15.70
2019-05-18T19:57:42.769Z,15.60
2019-05-18T20:00:13.435Z,15.40
2019-05-18T20:02:43.777Z,15.30
2019-05-18T20:05:14.090Z,15.00
2019-05-18T20:07:44.403Z,14.80
2019-05-18T20:10:15.028Z,14.80
2019-05-18T20:12:47.630Z,14.80
2019-05-18T20:15:18.343Z,14.80
2019-05-18T20:17:49.967Z,14.70
2019-05-18T20:20:21.120Z,14.80
2019-05-18T20:22:51.366Z,14.90
2019-05-18T20:25:21.688Z,15.00
2019-05-18T20:27:51.938Z,15.00
2019-05-18T20:30:22.229Z,15.00
2019-05-18T20:32:52.558Z,14.90
2019-05-18T20:35:25.636Z,14.80
2019-05-18T20:37:54.912Z,14.70
2019-05-18T20:40:25.192Z,14.50
2019-05-18T20:42:56.071Z,14.40
2019-05-18T20:45:26.392Z,14.20
2019-05-18T20:47:57.525Z,14.50
2019-05-18T20:50:28.259Z,14.40
2019-05-18T20:52:58.616Z,14.20
2019-05-18T20:55:28.901Z,14.00
2019-05-18T20:57:59.188Z,13.80
2019-05-18T21:00:29.513Z,13.80
2019-05-18T21:02:59.793Z,13.70
2019-05-18T21:05:30.100Z,13.70
2019-05-18T21:08:00.373Z,13.60
2019-05-18T21:10:30.756Z,13.50
2019-05-18T21:13:01.118Z,13.20
2019-05-18T21:15:31.411Z,13.00
2019-05-18T21:18:01.777Z,12.80
2019-05-18T21:20:32.055Z,12.60
2019-05-18T21:23:02.387Z,12.30
2019-05-18T21:25:33.066Z,12.30
2019-05-18T21:28:03.647Z,12.40
2019-05-18T21:30:33.927Z,12.40
2019-05-18T21:33:04.237Z,12.40
2019-05-18T21:35:34.507Z,12.40
2019-05-18T21:38:04.799Z,12.10
2019-05-18T21:40:35.137Z,12.00
2019-05-18T21:43:05.773Z,12.00
2019-05-18T21:45:36.131Z,11.90
2019-05-18T21:48:07.294Z,11.90
2019-05-18T21:50:37.592Z,11.90
2019-05-18T21:53:07.878Z,11.80
2019-05-18T21:55:38.483Z,11.70
2019-05-18T21:58:11.812Z,11.60
2019-05-18T22:00:40.727Z,11.50
2019-05-18T22:03:11.061Z,11.50
2019-05-18T22:05:41.364Z,11.50
2019-05-18T22:08:11.708Z,11.50
2019-05-18T22:10:42.039Z,11.50
2019-05-18T22:13:12.304Z,11.50
2019-05-18T22:15:42.590Z,11.30
2019-05-18T22:18:23.991Z,11.20
2019-05-18T22:20:45.728Z,11.20
2019-05-18T22:23:16.028Z,11.20
2019-05-18T22:25:46.376Z,11.10
2019-05-18T22:28:16.682Z,11.00
2019-05-18T22:30:48.360Z,10.90
2019-05-18T22:33:18.716Z,11.10
2019-05-18T22:35:49.199Z,11.10
2019-05-18T22:38:19.506Z,11.20
2019-05-18T22:40:49.771Z,11.20
2019-05-18T22:43:20.017Z,11.20
2019-05-18T22:45:50.308Z,11.10
2019-05-18T22:48:20.630Z,11.00
2019-05-18T22:50:51.425Z,11.00
2019-05-18T22:53:21.779Z,10.90
2019-05-18T22:55:53.032Z,10.90
2019-05-18T22:58:23.572Z,10.90
2019-05-18T23:00:54.125Z,10.80
2019-05-18T23:03:24.416Z,10.80
2019-05-18T23:05:54.708Z,10.80
2019-05-18T23:08:25.010Z,10.80
2019-05-18T23:10:55.293Z,10.70
2019-05-18T23:13:25.579Z,10.60
2019-05-18T23:15:55.863Z,10.50
2019-05-18T23:18:26.991Z,10.50
2019-05-18T23:20:57.296Z,10.40
2019-05-18T23:23:27.567Z,10.40
2019-05-18T23:25:57.877Z,10.40
2019-05-18T23:28:28.144Z,10.30
2019-05-18T23:30:58.439Z,10.20
2019-05-18T23:33:28.714Z,10.20
2019-05-18T23:35:58.990Z,10.20
2019-05-18T23:38:29.631Z,10.30
2019-05-18T23:40:59.959Z,10.30
2019-05-18T23:43:30.247Z,10.30
2019-05-18T23:46:00.523Z,10.20
2019-05-18T23:48:30.855Z,10.20
2019-05-18T23:51:01.151Z,10.10
2019-05-18T23:53:31.896Z,10.00
2019-05-18T23:56:02.378Z,10.00
2019-05-18T23:58:32.837Z,10.00
